sensor_id;sensor_type;location;lat;lon;timestamp;P1;durP1;ratioP1;P2;durP2;ratioP2
51981;SDS011;37998;53.416;6.730;2023-03-14T00:01:57;24.35;;;5.95;;
51981;SDS011;37998;53.416;6.730;2023-03-14T00:04:23;28.27;;;7.03;;
51981;SDS011;37998;53.416;6.730;2023-03-14T00:06:48;27.23;;;6.30;;
51981;SDS011;37998;53.416;6.730;2023-03-14T00:09:15;24.55;;;5.78;;
51981;SDS011;37998;53.416;6.730;2023-03-14T00:11:41;27.83;;;6.22;;
51981;SDS011;37998;53.416;6.730;2023-03-14T00:14:07;23.27;;;5.60;;
51981;SDS011;37998;53.416;6.730;2023-03-14T00:16:32;25.70;;;5.63;;
51981;SDS011;37998;53.416;6.730;2023-03-14T00:18:58;27.67;;;6.15;;
51981;SDS011;37998;53.416;6.730;2023-03-14T00:21:24;28.40;;;6.13;;
51981;SDS011;37998;53.416;6.730;2023-03-14T00:23:50;27.27;;;7.03;;
51981;SDS011;37998;53.416;6.730;2023-03-14T00:26:17;28.15;;;6.40;;
51981;SDS011;37998;53.416;6.730;2023-03-14T00:28:45;25.33;;;6.00;;
51981;SDS011;37998;53.416;6.730;2023-03-14T00:31:12;29.70;;;6.20;;
51981;SDS011;37998;53.416;6.730;2023-03-14T00:33:39;31.48;;;6.70;;
51981;SDS011;37998;53.416;6.730;2023-03-14T00:36:07;27.73;;;5.35;;
51981;SDS011;37998;53.416;6.730;2023-03-14T00:38:34;23.60;;;6.05;;
51981;SDS011;37998;53.416;6.730;2023-03-14T00:41:04;33.08;;;6.53;;
51981;SDS011;37998;53.416;6.730;2023-03-14T00:43:30;26.88;;;5.82;;
51981;SDS011;37998;53.416;6.730;2023-03-14T00:45:56;29.08;;;6.45;;
51981;SDS011;37998;53.416;6.730;2023-03-14T00:48:22;18.77;;;5.18;;
51981;SDS011;37998;53.416;6.730;2023-03-14T00:50:48;30.33;;;6.00;;
51981;SDS011;37998;53.416;6.730;2023-03-14T00:53:14;26.63;;;6.20;;
51981;SDS011;37998;53.416;6.730;2023-03-14T00:55:40;35.05;;;5.93;;
51981;SDS011;37998;53.416;6.730;2023-03-14T00:58:07;25.00;;;5.80;;
51981;SDS011;37998;53.416;6.730;2023-03-14T01:00:34;24.15;;;5.43;;
51981;SDS011;37998;53.416;6.730;2023-03-14T01:03:01;25.40;;;5.80;;
51981;SDS011;37998;53.416;6.730;2023-03-14T01:05:27;23.88;;;5.57;;
51981;SDS011;37998;53.416;6.730;2023-03-14T01:07:53;27.15;;;6.53;;
51981;SDS011;37998;53.416;6.730;2023-03-14T01:10:18;23.52;;;5.20;;
51981;SDS011;37998;53.416;6.730;2023-03-14T01:12:44;29.63;;;6.43;;
51981;SDS011;37998;53.416;6.730;2023-03-14T01:15:10;24.45;;;5.70;;
51981;SDS011;37998;53.416;6.730;2023-03-14T01:17:36;26.02;;;5.28;;
51981;SDS011;37998;53.416;6.730;2023-03-14T01:20:04;22.02;;;5.65;;
51981;SDS011;37998;53.416;6.730;2023-03-14T01:22:34;28.38;;;5.75;;
51981;SDS011;37998;53.416;6.730;2023-03-14T01:25:05;25.33;;;5.28;;
51981;SDS011;37998;53.416;6.730;2023-03-14T01:27:36;24.65;;;4.90;;
51981;SDS011;37998;53.416;6.730;2023-03-14T01:30:02;20.13;;;5.20;;
51981;SDS011;37998;53.416;6.730;2023-03-14T01:32:29;21.40;;;5.00;;
51981;SDS011;37998;53.416;6.730;2023-03-14T01:34:55;24.05;;;5.45;;
51981;SDS011;37998;53.416;6.730;2023-03-14T01:37:21;22.52;;;5.43;;
51981;SDS011;37998;53.416;6.730;2023-03-14T01:39:47;23.00;;;4.68;;
51981;SDS011;37998;53.416;6.730;2023-03-14T01:42:13;22.85;;;5.80;;
51981;SDS011;37998;53.416;6.730;2023-03-14T01:47:53;20.35;;;5.78;;
51981;SDS011;37998;53.416;6.730;2023-03-14T01:50:18;18.95;;;4.55;;
51981;SDS011;37998;53.416;6.730;2023-03-14T01:52:46;23.13;;;4.90;;
51981;SDS011;37998;53.416;6.730;2023-03-14T01:55:18;19.73;;;4.65;;
51981;SDS011;37998;53.416;6.730;2023-03-14T01:57:56;21.02;;;5.22;;
51981;SDS011;37998;53.416;6.730;2023-03-14T02:00:27;23.73;;;4.18;;
51981;SDS011;37998;53.416;6.730;2023-03-14T02:02:55;17.02;;;4.13;;
51981;SDS011;37998;53.416;6.730;2023-03-14T02:05:34;23.60;;;5.60;;
51981;SDS011;37998;53.416;6.730;2023-03-14T02:08:03;22.10;;;5.20;;
51981;SDS011;37998;53.416;6.730;2023-03-14T02:10:43;18.52;;;4.43;;
51981;SDS011;37998;53.416;6.730;2023-03-14T02:13:10;16.60;;;3.90;;
51981;SDS011;37998;53.416;6.730;2023-03-14T02:15:37;17.23;;;4.35;;
51981;SDS011;37998;53.416;6.730;2023-03-14T02:18:04;14.10;;;4.28;;
51981;SDS011;37998;53.416;6.730;2023-03-14T02:20:33;15.48;;;4.07;;
51981;SDS011;37998;53.416;6.730;2023-03-14T02:23:00;16.48;;;4.20;;
51981;SDS011;37998;53.416;6.730;2023-03-14T02:28:03;23.75;;;5.22;;
51981;SDS011;37998;53.416;6.730;2023-03-14T02:30:29;18.33;;;4.22;;
51981;SDS011;37998;53.416;6.730;2023-03-14T02:33:18;20.67;;;4.40;;
51981;SDS011;37998;53.416;6.730;2023-03-14T02:35:44;17.98;;;3.65;;
51981;SDS011;37998;53.416;6.730;2023-03-14T02:41:26;18.58;;;3.75;;
51981;SDS011;37998;53.416;6.730;2023-03-14T02:43:51;18.80;;;4.18;;
51981;SDS011;37998;53.416;6.730;2023-03-14T02:46:18;11.57;;;3.67;;
51981;SDS011;37998;53.416;6.730;2023-03-14T02:51:26;17.10;;;4.15;;
51981;SDS011;37998;53.416;6.730;2023-03-14T02:53:53;14.25;;;3.70;;
51981;SDS011;37998;53.416;6.730;2023-03-14T02:56:19;17.50;;;3.45;;
51981;SDS011;37998;53.416;6.730;2023-03-14T02:58:45;14.75;;;3.40;;
51981;SDS011;37998;53.416;6.730;2023-03-14T03:01:11;16.98;;;3.70;;
51981;SDS011;37998;53.416;6.730;2023-03-14T03:03:36;17.08;;;3.13;;
51981;SDS011;37998;53.416;6.730;2023-03-14T03:06:02;19.70;;;4.72;;
51981;SDS011;37998;53.416;6.730;2023-03-14T03:08:28;14.23;;;3.15;;
51981;SDS011;37998;53.416;6.730;2023-03-14T03:10:54;17.45;;;4.03;;
51981;SDS011;37998;53.416;6.730;2023-03-14T03:13:20;14.43;;;3.28;;
51981;SDS011;37998;53.416;6.730;2023-03-14T03:15:45;15.05;;;3.58;;
51981;SDS011;37998;53.416;6.730;2023-03-14T03:18:11;17.42;;;3.42;;
51981;SDS011;37998;53.416;6.730;2023-03-14T03:20:37;13.65;;;3.33;;
51981;SDS011;37998;53.416;6.730;2023-03-14T03:23:03;18.33;;;4.55;;
51981;SDS011;37998;53.416;6.730;2023-03-14T03:25:28;15.27;;;3.70;;
51981;SDS011;37998;53.416;6.730;2023-03-14T03:27:54;11.52;;;3.65;;
51981;SDS011;37998;53.416;6.730;2023-03-14T03:30:20;12.40;;;3.38;;
51981;SDS011;37998;53.416;6.730;2023-03-14T03:32:46;19.02;;;3.85;;
51981;SDS011;37998;53.416;6.730;2023-03-14T03:35:11;17.02;;;3.95;;
51981;SDS011;37998;53.416;6.730;2023-03-14T03:37:38;17.83;;;4.00;;
51981;SDS011;37998;53.416;6.730;2023-03-14T03:40:04;14.30;;;4.07;;
51981;SDS011;37998;53.416;6.730;2023-03-14T03:42:31;15.60;;;3.72;;
51981;SDS011;37998;53.416;6.730;2023-03-14T03:44:58;11.10;;;3.38;;
51981;SDS011;37998;53.416;6.730;2023-03-14T03:47:24;16.58;;;3.97;;
51981;SDS011;37998;53.416;6.730;2023-03-14T03:49:50;13.18;;;4.63;;
51981;SDS011;37998;53.416;6.730;2023-03-14T03:52:16;14.55;;;3.90;;
51981;SDS011;37998;53.416;6.730;2023-03-14T03:54:41;15.55;;;4.72;;
51981;SDS011;37998;53.416;6.730;2023-03-14T03:57:07;12.95;;;4.47;;
51981;SDS011;37998;53.416;6.730;2023-03-14T03:59:33;12.88;;;4.68;;
51981;SDS011;37998;53.416;6.730;2023-03-14T04:01:59;16.55;;;4.70;;
51981;SDS011;37998;53.416;6.730;2023-03-14T04:04:24;11.52;;;4.60;;
51981;SDS011;37998;53.416;6.730;2023-03-14T04:06:50;17.38;;;4.32;;
51981;SDS011;37998;53.416;6.730;2023-03-14T04:09:16;18.55;;;4.95;;
51981;SDS011;37998;53.416;6.730;2023-03-14T04:11:41;22.17;;;5.43;;
51981;SDS011;37998;53.416;6.730;2023-03-14T04:14:07;17.88;;;4.38;;
51981;SDS011;37998;53.416;6.730;2023-03-14T04:16:33;19.63;;;5.50;;
51981;SDS011;37998;53.416;6.730;2023-03-14T04:18:59;23.98;;;5.65;;
51981;SDS011;37998;53.416;6.730;2023-03-14T04:21:25;24.33;;;6.50;;
51981;SDS011;37998;53.416;6.730;2023-03-14T04:23:51;19.63;;;5.55;;
51981;SDS011;37998;53.416;6.730;2023-03-14T04:26:17;26.52;;;5.85;;
51981;SDS011;37998;53.416;6.730;2023-03-14T04:28:42;19.52;;;5.57;;
51981;SDS011;37998;53.416;6.730;2023-03-14T04:33:35;25.60;;;5.80;;
51981;SDS011;37998;53.416;6.730;2023-03-14T04:36:02;25.17;;;6.00;;
51981;SDS011;37998;53.416;6.730;2023-03-14T04:38:29;24.92;;;5.55;;
51981;SDS011;37998;53.416;6.730;2023-03-14T04:40:55;28.35;;;5.70;;
51981;SDS011;37998;53.416;6.730;2023-03-14T04:43:21;18.15;;;5.20;;
51981;SDS011;37998;53.416;6.730;2023-03-14T04:45:46;26.65;;;5.75;;
51981;SDS011;37998;53.416;6.730;2023-03-14T04:48:12;34.85;;;6.65;;
51981;SDS011;37998;53.416;6.730;2023-03-14T04:50:38;30.60;;;7.35;;
51981;SDS011;37998;53.416;6.730;2023-03-14T04:53:04;29.27;;;5.88;;
51981;SDS011;37998;53.416;6.730;2023-03-14T04:55:30;24.38;;;6.00;;
51981;SDS011;37998;53.416;6.730;2023-03-14T04:57:57;20.98;;;5.78;;
51981;SDS011;37998;53.416;6.730;2023-03-14T05:00:24;28.95;;;5.93;;
51981;SDS011;37998;53.416;6.730;2023-03-14T05:02:49;26.88;;;5.82;;
51981;SDS011;37998;53.416;6.730;2023-03-14T05:05:15;22.58;;;5.82;;
51981;SDS011;37998;53.416;6.730;2023-03-14T05:07:41;18.33;;;5.88;;
51981;SDS011;37998;53.416;6.730;2023-03-14T05:10:07;25.25;;;6.60;;
51981;SDS011;37998;53.416;6.730;2023-03-14T05:12:33;24.23;;;6.60;;
51981;SDS011;37998;53.416;6.730;2023-03-14T05:14:59;18.10;;;5.95;;
51981;SDS011;37998;53.416;6.730;2023-03-14T05:17:24;19.85;;;6.57;;
51981;SDS011;37998;53.416;6.730;2023-03-14T05:19:50;23.85;;;7.57;;
51981;SDS011;37998;53.416;6.730;2023-03-14T05:22:16;19.67;;;6.65;;
51981;SDS011;37998;53.416;6.730;2023-03-14T05:24:42;22.58;;;6.50;;
51981;SDS011;37998;53.416;6.730;2023-03-14T05:27:08;17.20;;;6.53;;
51981;SDS011;37998;53.416;6.730;2023-03-14T05:29:34;17.42;;;6.18;;
51981;SDS011;37998;53.416;6.730;2023-03-14T05:31:59;15.90;;;6.32;;
51981;SDS011;37998;53.416;6.730;2023-03-14T05:34:25;17.70;;;6.90;;
51981;SDS011;37998;53.416;6.730;2023-03-14T05:36:51;21.70;;;7.28;;
51981;SDS011;37998;53.416;6.730;2023-03-14T05:39:17;17.52;;;6.97;;
51981;SDS011;37998;53.416;6.730;2023-03-14T05:41:43;13.27;;;6.82;;
51981;SDS011;37998;53.416;6.730;2023-03-14T05:44:09;14.48;;;6.65;;
51981;SDS011;37998;53.416;6.730;2023-03-14T05:46:34;17.20;;;6.40;;
51981;SDS011;37998;53.416;6.730;2023-03-14T05:49:00;12.77;;;5.93;;
51981;SDS011;37998;53.416;6.730;2023-03-14T05:51:26;11.07;;;5.93;;
51981;SDS011;37998;53.416;6.730;2023-03-14T05:53:52;13.90;;;5.53;;
51981;SDS011;37998;53.416;6.730;2023-03-14T05:56:17;13.05;;;5.32;;
51981;SDS011;37998;53.416;6.730;2023-03-14T05:58:44;8.43;;;4.20;;
51981;SDS011;37998;53.416;6.730;2023-03-14T06:01:10;7.43;;;4.20;;
51981;SDS011;37998;53.416;6.730;2023-03-14T06:03:35;9.98;;;4.43;;
51981;SDS011;37998;53.416;6.730;2023-03-14T06:06:01;7.00;;;4.13;;
51981;SDS011;37998;53.416;6.730;2023-03-14T06:08:27;8.18;;;4.03;;
51981;SDS011;37998;53.416;6.730;2023-03-14T06:10:53;13.77;;;5.07;;
51981;SDS011;37998;53.416;6.730;2023-03-14T06:13:21;5.78;;;4.20;;
51981;SDS011;37998;53.416;6.730;2023-03-14T06:15:46;8.38;;;4.15;;
51981;SDS011;37998;53.416;6.730;2023-03-14T06:18:12;5.90;;;3.05;;
51981;SDS011;37998;53.416;6.730;2023-03-14T06:20:39;4.50;;;2.63;;
51981;SDS011;37998;53.416;6.730;2023-03-14T06:23:05;7.15;;;2.17;;
51981;SDS011;37998;53.416;6.730;2023-03-14T06:25:32;15.93;;;3.05;;
51981;SDS011;37998;53.416;6.730;2023-03-14T06:27:58;17.02;;;3.40;;
51981;SDS011;37998;53.416;6.730;2023-03-14T06:30:23;13.88;;;2.95;;
51981;SDS011;37998;53.416;6.730;2023-03-14T06:32:49;24.65;;;3.72;;
51981;SDS011;37998;53.416;6.730;2023-03-14T06:35:15;23.77;;;4.00;;
51981;SDS011;37998;53.416;6.730;2023-03-14T06:37:40;25.02;;;4.63;;
51981;SDS011;37998;53.416;6.730;2023-03-14T06:40:07;22.45;;;3.33;;
51981;SDS011;37998;53.416;6.730;2023-03-14T06:42:34;18.95;;;3.45;;
51981;SDS011;37998;53.416;6.730;2023-03-14T06:45:00;26.70;;;3.95;;
51981;SDS011;37998;53.416;6.730;2023-03-14T06:47:25;18.23;;;3.00;;
51981;SDS011;37998;53.416;6.730;2023-03-14T06:49:51;19.00;;;2.80;;
51981;SDS011;37998;53.416;6.730;2023-03-14T06:52:16;13.68;;;2.40;;
51981;SDS011;37998;53.416;6.730;2023-03-14T06:54:42;8.35;;;2.95;;
51981;SDS011;37998;53.416;6.730;2023-03-14T06:57:08;13.90;;;2.22;;
51981;SDS011;37998;53.416;6.730;2023-03-14T06:59:33;19.73;;;2.78;;
51981;SDS011;37998;53.416;6.730;2023-03-14T07:01:59;5.82;;;1.98;;
51981;SDS011;37998;53.416;6.730;2023-03-14T07:04:25;7.35;;;1.83;;
51981;SDS011;37998;53.416;6.730;2023-03-14T07:06:50;18.33;;;2.85;;
51981;SDS011;37998;53.416;6.730;2023-03-14T07:09:16;5.38;;;1.60;;
51981;SDS011;37998;53.416;6.730;2023-03-14T07:11:42;9.38;;;1.55;;
51981;SDS011;37998;53.416;6.730;2023-03-14T07:14:08;5.22;;;1.70;;
51981;SDS011;37998;53.416;6.730;2023-03-14T07:16:34;5.13;;;1.38;;
51981;SDS011;37998;53.416;6.730;2023-03-14T07:19:00;13.13;;;1.73;;
51981;SDS011;37998;53.416;6.730;2023-03-14T07:21:27;2.83;;;1.73;;
51981;SDS011;37998;53.416;6.730;2023-03-14T07:23:53;4.70;;;1.45;;
51981;SDS011;37998;53.416;6.730;2023-03-14T07:26:19;5.03;;;1.65;;
51981;SDS011;37998;53.416;6.730;2023-03-14T07:28:44;3.88;;;1.63;;
51981;SDS011;37998;53.416;6.730;2023-03-14T07:31:10;5.65;;;1.25;;
51981;SDS011;37998;53.416;6.730;2023-03-14T07:33:36;2.35;;;1.50;;
51981;SDS011;37998;53.416;6.730;2023-03-14T07:36:02;3.45;;;1.33;;
51981;SDS011;37998;53.416;6.730;2023-03-14T07:38:28;4.63;;;1.35;;
51981;SDS011;37998;53.416;6.730;2023-03-14T07:41:01;4.63;;;1.20;;
51981;SDS011;37998;53.416;6.730;2023-03-14T07:43:28;4.90;;;1.55;;
51981;SDS011;37998;53.416;6.730;2023-03-14T07:45:54;2.13;;;1.17;;
51981;SDS011;37998;53.416;6.730;2023-03-14T07:48:20;7.07;;;1.55;;
51981;SDS011;37998;53.416;6.730;2023-03-14T07:50:50;4.13;;;1.38;;
51981;SDS011;37998;53.416;6.730;2023-03-14T07:53:17;5.18;;;1.38;;
51981;SDS011;37998;53.416;6.730;2023-03-14T07:55:43;7.45;;;1.55;;
51981;SDS011;37998;53.416;6.730;2023-03-14T07:58:09;6.25;;;2.13;;
51981;SDS011;37998;53.416;6.730;2023-03-14T08:00:35;6.57;;;1.88;;
51981;SDS011;37998;53.416;6.730;2023-03-14T08:03:00;11.10;;;1.65;;
51981;SDS011;37998;53.416;6.730;2023-03-14T08:05:26;5.32;;;1.20;;
51981;SDS011;37998;53.416;6.730;2023-03-14T08:07:53;6.90;;;2.63;;
51981;SDS011;37998;53.416;6.730;2023-03-14T08:10:19;7.07;;;1.90;;
51981;SDS011;37998;53.416;6.730;2023-03-14T08:12:54;7.68;;;1.80;;
51981;SDS011;37998;53.416;6.730;2023-03-14T08:15:21;11.48;;;2.10;;
51981;SDS011;37998;53.416;6.730;2023-03-14T08:17:47;12.27;;;2.25;;
51981;SDS011;37998;53.416;6.730;2023-03-14T08:20:23;8.55;;;2.13;;
51981;SDS011;37998;53.416;6.730;2023-03-14T08:22:50;5.60;;;2.10;;
51981;SDS011;37998;53.416;6.730;2023-03-14T08:25:16;7.82;;;2.30;;
51981;SDS011;37998;53.416;6.730;2023-03-14T08:27:42;8.77;;;2.85;;
51981;SDS011;37998;53.416;6.730;2023-03-14T08:30:12;8.45;;;2.25;;
51981;SDS011;37998;53.416;6.730;2023-03-14T08:32:39;18.58;;;3.05;;
51981;SDS011;37998;53.416;6.730;2023-03-14T08:35:05;11.65;;;3.03;;
51981;SDS011;37998;53.416;6.730;2023-03-14T08:37:32;10.77;;;2.67;;
51981;SDS011;37998;53.416;6.730;2023-03-14T08:39:57;9.95;;;2.95;;
51981;SDS011;37998;53.416;6.730;2023-03-14T08:42:23;17.63;;;3.15;;
51981;SDS011;37998;53.416;6.730;2023-03-14T08:44:50;10.23;;;2.90;;
51981;SDS011;37998;53.416;6.730;2023-03-14T08:47:16;12.02;;;3.15;;
51981;SDS011;37998;53.416;6.730;2023-03-14T08:49:42;17.45;;;3.95;;
51981;SDS011;37998;53.416;6.730;2023-03-14T08:52:07;14.55;;;2.95;;
51981;SDS011;37998;53.416;6.730;2023-03-14T08:54:36;22.38;;;3.78;;
51981;SDS011;37998;53.416;6.730;2023-03-14T08:57:01;13.50;;;3.05;;
51981;SDS011;37998;53.416;6.730;2023-03-14T08:59:27;10.38;;;3.33;;
51981;SDS011;37998;53.416;6.730;2023-03-14T09:01:53;10.75;;;2.45;;
51981;SDS011;37998;53.416;6.730;2023-03-14T09:04:19;11.15;;;3.08;;
51981;SDS011;37998;53.416;6.730;2023-03-14T09:06:45;15.68;;;3.08;;
51981;SDS011;37998;53.416;6.730;2023-03-14T09:09:11;16.30;;;3.25;;
51981;SDS011;37998;53.416;6.730;2023-03-14T09:11:38;16.70;;;3.53;;
51981;SDS011;37998;53.416;6.730;2023-03-14T09:14:04;22.75;;;4.53;;
51981;SDS011;37998;53.416;6.730;2023-03-14T09:16:29;24.67;;;3.60;;
51981;SDS011;37998;53.416;6.730;2023-03-14T09:18:55;18.10;;;3.58;;
51981;SDS011;37998;53.416;6.730;2023-03-14T09:21:24;26.40;;;4.55;;
51981;SDS011;37998;53.416;6.730;2023-03-14T09:23:51;17.60;;;3.90;;
51981;SDS011;37998;53.416;6.730;2023-03-14T09:26:16;20.77;;;4.20;;
51981;SDS011;37998;53.416;6.730;2023-03-14T09:28:42;24.17;;;4.03;;
51981;SDS011;37998;53.416;6.730;2023-03-14T09:31:08;22.40;;;3.90;;
51981;SDS011;37998;53.416;6.730;2023-03-14T09:33:35;23.63;;;4.15;;
51981;SDS011;37998;53.416;6.730;2023-03-14T09:36:02;27.52;;;5.00;;
51981;SDS011;37998;53.416;6.730;2023-03-14T09:38:27;26.02;;;5.70;;
51981;SDS011;37998;53.416;6.730;2023-03-14T09:40:54;23.20;;;3.90;;
51981;SDS011;37998;53.416;6.730;2023-03-14T09:43:22;29.52;;;4.88;;
51981;SDS011;37998;53.416;6.730;2023-03-14T09:45:51;19.25;;;4.55;;
51981;SDS011;37998;53.416;6.730;2023-03-14T09:48:21;23.95;;;4.40;;
51981;SDS011;37998;53.416;6.730;2023-03-14T09:50:50;17.15;;;4.15;;
51981;SDS011;37998;53.416;6.730;2023-03-14T09:53:19;12.55;;;3.53;;
51981;SDS011;37998;53.416;6.730;2023-03-14T09:55:49;21.67;;;4.63;;
51981;SDS011;37998;53.416;6.730;2023-03-14T09:58:20;21.88;;;4.40;;
51981;SDS011;37998;53.416;6.730;2023-03-14T10:00:52;16.95;;;3.92;;
51981;SDS011;37998;53.416;6.730;2023-03-14T10:05:46;19.35;;;3.78;;
51981;SDS011;37998;53.416;6.730;2023-03-14T10:08:12;19.75;;;5.03;;
51981;SDS011;37998;53.416;6.730;2023-03-14T10:10:39;16.40;;;3.33;;
51981;SDS011;37998;53.416;6.730;2023-03-14T10:13:22;23.15;;;4.05;;
51981;SDS011;37998;53.416;6.730;2023-03-14T10:15:52;16.60;;;4.18;;
51981;SDS011;37998;53.416;6.730;2023-03-14T10:18:20;24.83;;;4.07;;
51981;SDS011;37998;53.416;6.730;2023-03-14T10:20:49;21.63;;;5.50;;
51981;SDS011;37998;53.416;6.730;2023-03-14T10:23:29;15.15;;;3.10;;
51981;SDS011;37998;53.416;6.730;2023-03-14T10:26:13;17.40;;;2.90;;
51981;SDS011;37998;53.416;6.730;2023-03-14T10:31:13;12.48;;;3.28;;
51981;SDS011;37998;53.416;6.730;2023-03-14T10:33:39;13.23;;;3.15;;
51981;SDS011;37998;53.416;6.730;2023-03-14T10:38:33;12.55;;;3.47;;
51981;SDS011;37998;53.416;6.730;2023-03-14T10:41:01;15.38;;;2.85;;
51981;SDS011;37998;53.416;6.730;2023-03-14T10:45:59;17.40;;;3.38;;
51981;SDS011;37998;53.416;6.730;2023-03-14T10:51:02;16.90;;;3.45;;
51981;SDS011;37998;53.416;6.730;2023-03-14T10:53:34;9.70;;;2.30;;
51981;SDS011;37998;53.416;6.730;2023-03-14T10:56:15;8.93;;;2.00;;
51981;SDS011;37998;53.416;6.730;2023-03-14T10:58:44;7.93;;;2.33;;
51981;SDS011;37998;53.416;6.730;2023-03-14T11:07:24;12.15;;;2.55;;
51981;SDS011;37998;53.416;6.730;2023-03-14T11:15:05;9.07;;;2.45;;
51981;SDS011;37998;53.416;6.730;2023-03-14T11:23:31;9.88;;;2.53;;
51981;SDS011;37998;53.416;6.730;2023-03-14T11:26:19;11.52;;;2.80;;
51981;SDS011;37998;53.416;6.730;2023-03-14T11:31:48;10.77;;;2.00;;
51981;SDS011;37998;53.416;6.730;2023-03-14T11:34:19;7.00;;;1.88;;
51981;SDS011;37998;53.416;6.730;2023-03-14T11:36:53;4.88;;;1.77;;
51981;SDS011;37998;53.416;6.730;2023-03-14T11:39:26;9.68;;;1.83;;
51981;SDS011;37998;53.416;6.730;2023-03-14T11:41:59;8.00;;;2.05;;
51981;SDS011;37998;53.416;6.730;2023-03-14T11:44:27;7.55;;;2.40;;
51981;SDS011;37998;53.416;6.730;2023-03-14T11:49:40;7.43;;;2.05;;
51981;SDS011;37998;53.416;6.730;2023-03-14T11:52:32;16.55;;;3.28;;
51981;SDS011;37998;53.416;6.730;2023-03-14T11:57:58;14.18;;;2.25;;
51981;SDS011;37998;53.416;6.730;2023-03-14T12:00:34;14.63;;;2.63;;
51981;SDS011;37998;53.416;6.730;2023-03-14T12:11:08;20.20;;;2.50;;
51981;SDS011;37998;53.416;6.730;2023-03-14T12:13:39;15.75;;;3.60;;
51981;SDS011;37998;53.416;6.730;2023-03-14T12:16:19;11.43;;;2.90;;
51981;SDS011;37998;53.416;6.730;2023-03-14T12:18:49;16.38;;;3.20;;
51981;SDS011;37998;53.416;6.730;2023-03-14T12:21:15;13.32;;;2.90;;
51981;SDS011;37998;53.416;6.730;2023-03-14T12:23:43;13.93;;;2.97;;
51981;SDS011;37998;53.416;6.730;2023-03-14T12:26:18;16.55;;;3.97;;
51981;SDS011;37998;53.416;6.730;2023-03-14T12:34:26;13.32;;;2.92;;
51981;SDS011;37998;53.416;6.730;2023-03-14T12:36:59;7.43;;;2.10;;
51981;SDS011;37998;53.416;6.730;2023-03-14T12:45:13;9.20;;;2.25;;
51981;SDS011;37998;53.416;6.730;2023-03-14T12:47:45;7.93;;;1.92;;
51981;SDS011;37998;53.416;6.730;2023-03-14T12:50:19;9.18;;;2.42;;
51981;SDS011;37998;53.416;6.730;2023-03-14T12:55:48;14.45;;;2.33;;
51981;SDS011;37998;53.416;6.730;2023-03-14T13:01:27;10.88;;;2.47;;
51981;SDS011;37998;53.416;6.730;2023-03-14T13:03:57;12.00;;;2.00;;
51981;SDS011;37998;53.416;6.730;2023-03-14T13:11:51;19.10;;;3.45;;
51981;SDS011;37998;53.416;6.730;2023-03-14T13:14:41;13.70;;;2.97;;
51981;SDS011;37998;53.416;6.730;2023-03-14T13:17:13;13.57;;;1.95;;
51981;SDS011;37998;53.416;6.730;2023-03-14T13:19:40;8.02;;;1.73;;
51981;SDS011;37998;53.416;6.730;2023-03-14T13:22:15;9.27;;;2.67;;
51981;SDS011;37998;53.416;6.730;2023-03-14T13:24:45;8.52;;;2.83;;
51981;SDS011;37998;53.416;6.730;2023-03-14T13:27:17;8.10;;;2.00;;
51981;SDS011;37998;53.416;6.730;2023-03-14T13:29:47;7.35;;;2.20;;
51981;SDS011;37998;53.416;6.730;2023-03-14T13:32:21;9.68;;;2.25;;
51981;SDS011;37998;53.416;6.730;2023-03-14T13:34:51;6.47;;;2.20;;
51981;SDS011;37998;53.416;6.730;2023-03-14T13:37:22;10.98;;;2.13;;
51981;SDS011;37998;53.416;6.730;2023-03-14T13:39:52;6.65;;;1.83;;
51981;SDS011;37998;53.416;6.730;2023-03-14T13:42:29;7.07;;;1.95;;
51981;SDS011;37998;53.416;6.730;2023-03-14T13:44:55;10.25;;;2.00;;
51981;SDS011;37998;53.416;6.730;2023-03-14T13:47:23;10.75;;;2.10;;
51981;SDS011;37998;53.416;6.730;2023-03-14T13:49:51;8.30;;;2.25;;
51981;SDS011;37998;53.416;6.730;2023-03-14T13:52:36;10.45;;;2.40;;
51981;SDS011;37998;53.416;6.730;2023-03-14T13:55:03;7.28;;;2.13;;
51981;SDS011;37998;53.416;6.730;2023-03-14T13:57:46;8.55;;;2.20;;
51981;SDS011;37998;53.416;6.730;2023-03-14T14:00:21;7.68;;;2.30;;
51981;SDS011;37998;53.416;6.730;2023-03-14T14:02:52;7.03;;;2.28;;
51981;SDS011;37998;53.416;6.730;2023-03-14T14:05:19;12.98;;;2.53;;
51981;SDS011;37998;53.416;6.730;2023-03-14T14:07:45;10.82;;;2.50;;
51981;SDS011;37998;53.416;6.730;2023-03-14T14:10:12;13.98;;;2.92;;
51981;SDS011;37998;53.416;6.730;2023-03-14T14:12:53;11.10;;;2.55;;
51981;SDS011;37998;53.416;6.730;2023-03-14T14:15:28;6.85;;;1.75;;
51981;SDS011;37998;53.416;6.730;2023-03-14T14:18:06;10.55;;;2.33;;
51981;SDS011;37998;53.416;6.730;2023-03-14T14:20:40;8.68;;;2.63;;
51981;SDS011;37998;53.416;6.730;2023-03-14T14:23:11;8.40;;;2.65;;
51981;SDS011;37998;53.416;6.730;2023-03-14T14:25:40;15.20;;;2.55;;
51981;SDS011;37998;53.416;6.730;2023-03-14T14:28:23;8.32;;;2.10;;
51981;SDS011;37998;53.416;6.730;2023-03-14T14:31:04;9.07;;;2.40;;
51981;SDS011;37998;53.416;6.730;2023-03-14T14:33:37;15.70;;;2.63;;
51981;SDS011;37998;53.416;6.730;2023-03-14T14:36:05;9.18;;;2.47;;
51981;SDS011;37998;53.416;6.730;2023-03-14T14:41:35;9.27;;;2.53;;
51981;SDS011;37998;53.416;6.730;2023-03-14T14:44:05;10.23;;;2.35;;
51981;SDS011;37998;53.416;6.730;2023-03-14T14:46:32;14.52;;;3.00;;
51981;SDS011;37998;53.416;6.730;2023-03-14T14:49:19;11.45;;;3.03;;
51981;SDS011;37998;53.416;6.730;2023-03-14T14:51:48;11.93;;;2.97;;
51981;SDS011;37998;53.416;6.730;2023-03-14T14:54:16;16.58;;;3.40;;
51981;SDS011;37998;53.416;6.730;2023-03-14T14:56:50;5.45;;;2.03;;
51981;SDS011;37998;53.416;6.730;2023-03-14T14:59:27;8.63;;;3.13;;
51981;SDS011;37998;53.416;6.730;2023-03-14T15:01:57;8.45;;;2.78;;
51981;SDS011;37998;53.416;6.730;2023-03-14T15:04:24;12.52;;;2.45;;
51981;SDS011;37998;53.416;6.730;2023-03-14T15:06:51;12.10;;;2.10;;
51981;SDS011;37998;53.416;6.730;2023-03-14T15:09:18;7.32;;;2.30;;
51981;SDS011;37998;53.416;6.730;2023-03-14T15:11:45;9.63;;;1.92;;
51981;SDS011;37998;53.416;6.730;2023-03-14T15:14:11;11.43;;;2.60;;
51981;SDS011;37998;53.416;6.730;2023-03-14T15:16:37;9.75;;;2.17;;
51981;SDS011;37998;53.416;6.730;2023-03-14T15:19:11;11.88;;;2.38;;
51981;SDS011;37998;53.416;6.730;2023-03-14T15:21:43;14.95;;;2.78;;
51981;SDS011;37998;53.416;6.730;2023-03-14T15:24:09;8.13;;;2.83;;
51981;SDS011;37998;53.416;6.730;2023-03-14T15:26:34;7.20;;;2.08;;
51981;SDS011;37998;53.416;6.730;2023-03-14T15:29:00;13.60;;;3.05;;
51981;SDS011;37998;53.416;6.730;2023-03-14T15:31:26;8.77;;;1.95;;
51981;SDS011;37998;53.416;6.730;2023-03-14T15:33:51;8.38;;;2.03;;
51981;SDS011;37998;53.416;6.730;2023-03-14T15:36:21;25.15;;;2.83;;
51981;SDS011;37998;53.416;6.730;2023-03-14T15:38:49;11.57;;;2.28;;
51981;SDS011;37998;53.416;6.730;2023-03-14T15:41:17;16.20;;;3.45;;
51981;SDS011;37998;53.416;6.730;2023-03-14T15:43:43;17.13;;;3.47;;
51981;SDS011;37998;53.416;6.730;2023-03-14T15:46:09;18.13;;;3.50;;
51981;SDS011;37998;53.416;6.730;2023-03-14T15:48:36;16.10;;;2.47;;
51981;SDS011;37998;53.416;6.730;2023-03-14T15:51:01;19.33;;;2.92;;
51981;SDS011;37998;53.416;6.730;2023-03-14T15:53:27;9.75;;;2.63;;
51981;SDS011;37998;53.416;6.730;2023-03-14T15:55:53;6.30;;;2.03;;
51981;SDS011;37998;53.416;6.730;2023-03-14T15:58:19;8.32;;;1.85;;
51981;SDS011;37998;53.416;6.730;2023-03-14T16:00:45;8.05;;;2.25;;
51981;SDS011;37998;53.416;6.730;2023-03-14T16:03:11;13.32;;;2.80;;
51981;SDS011;37998;53.416;6.730;2023-03-14T16:05:38;13.23;;;4.68;;
51981;SDS011;37998;53.416;6.730;2023-03-14T16:08:04;16.63;;;3.05;;
51981;SDS011;37998;53.416;6.730;2023-03-14T16:10:30;12.15;;;2.50;;